sensor_id;sensor_type;location;lat;lon;timestamp;temperature;humidity
5592;DHT22;2818;49.790;9.958;2022-12-18T00:01:04;-7.20;99.20
5592;DHT22;2818;49.790;9.958;2022-12-18T00:03:33;-7.20;99.90
5592;DHT22;2818;49.790;9.958;2022-12-18T00:06:01;-7.30;99.90
5592;DHT22;2818;49.790;9.958;2022-12-18T00:08:28;-7.30;51.20
5592;DHT22;2818;49.790;9.958;2022-12-18T00:10:55;-7.30;1.00
5592;DHT22;2818;49.790;9.958;2022-12-18T00:13:27;-7.30;99.90
5592;DHT22;2818;49.790;9.958;2022-12-18T00:15:54;-7.30;99.90
5592;DHT22;2818;49.790;9.958;2022-12-18T00:18:22;-7.30;99.90
5592;DHT22;2818;49.790;9.958;2022-12-18T00:20:49;-7.30;51.90
5592;DHT22;2818;49.790;9.958;2022-12-18T00:23:16;-7.30;99.90
5592;DHT22;2818;49.790;9.958;2022-12-18T00:25:42;-7.40;99.90
5592;DHT22;2818;49.790;9.958;2022-12-18T00:28:09;-7.40;1.00
5592;DHT22;2818;49.790;9.958;2022-12-18T00:30:36;-7.30;1.00
5592;DHT22;2818;49.790;9.958;2022-12-18T00:33:03;-7.30;1.00
5592;DHT22;2818;49.790;9.958;2022-12-18T00:35:31;-7.40;99.90
5592;DHT22;2818;49.790;9.958;2022-12-18T00:37:58;-7.40;1.00
5592;DHT22;2818;49.790;9.958;2022-12-18T00:40:25;-7.40;99.90
5592;DHT22;2818;49.790;9.958;2022-12-18T00:42:52;-7.50;99.90
5592;DHT22;2818;49.790;9.958;2022-12-18T00:45:30;-7.50;99.90
5592;DHT22;2818;49.790;9.958;2022-12-18T00:47:57;-7.50;1.00
5592;DHT22;2818;49.790;9.958;2022-12-18T00:50:24;-7.50;1.00
5592;DHT22;2818;49.790;9.958;2022-12-18T00:52:52;-7.50;99.90
5592;DHT22;2818;49.790;9.958;2022-12-18T00:55:19;-7.50;22.90
5592;DHT22;2818;49.790;9.958;2022-12-18T00:57:46;-7.50;1.00
5592;DHT22;2818;49.790;9.958;2022-12-18T01:00:14;-7.60;1.00
5592;DHT22;2818;49.790;9.958;2022-12-18T01:02:41;-7.60;1.00
5592;DHT22;2818;49.790;9.958;2022-12-18T01:05:14;-7.60;99.90
5592;DHT22;2818;49.790;9.958;2022-12-18T01:07:41;-7.60;1.00
5592;DHT22;2818;49.790;9.958;2022-12-18T01:10:09;-7.60;99.90
5592;DHT22;2818;49.790;9.958;2022-12-18T01:12:38;-7.60;99.90
5592;DHT22;2818;49.790;9.958;2022-12-18T01:15:06;-7.60;99.90
5592;DHT22;2818;49.790;9.958;2022-12-18T01:17:34;-7.60;99.90
5592;DHT22;2818;49.790;9.958;2022-12-18T01:20:01;-7.60;99.90
5592;DHT22;2818;49.790;9.958;2022-12-18T01:22:28;-7.60;1.00
5592;DHT22;2818;49.790;9.958;2022-12-18T01:24:54;-7.60;99.90
5592;DHT22;2818;49.790;9.958;2022-12-18T01:27:21;-7.60;99.90
5592;DHT22;2818;49.790;9.958;2022-12-18T01:29:49;-7.60;99.90
5592;DHT22;2818;49.790;9.958;2022-12-18T01:32:16;-7.60;99.90
5592;DHT22;2818;49.790;9.958;2022-12-18T01:34:43;-7.60;99.90
5592;DHT22;2818;49.790;9.958;2022-12-18T01:37:10;-7.70;1.00
5592;DHT22;2818;49.790;9.958;2022-12-18T01:39:37;-7.70;1.00
5592;DHT22;2818;49.790;9.958;2022-12-18T01:42:12;-7.80;1.00
5592;DHT22;2818;49.790;9.958;2022-12-18T01:45:00;-7.60;1.00
5592;DHT22;2818;49.790;9.958;2022-12-18T01:50:24;-7.60;1.00
5592;DHT22;2818;49.790;9.958;2022-12-18T01:52:54;-7.60;1.00
5592;DHT22;2818;49.790;9.958;2022-12-18T01:55:25;-7.60;99.90
5592;DHT22;2818;49.790;9.958;2022-12-18T01:57:54;-7.60;99.90
5592;DHT22;2818;49.790;9.958;2022-12-18T02:00:22;-7.60;90.70
5592;DHT22;2818;49.790;9.958;2022-12-18T02:02:50;-7.60;99.90
5592;DHT22;2818;49.790;9.958;2022-12-18T02:11:10;-7.70;42.10
5592;DHT22;2818;49.790;9.958;2022-12-18T02:14:30;-7.70;99.90
5592;DHT22;2818;49.790;9.958;2022-12-18T02:16:43;-7.70;99.90
5592;DHT22;2818;49.790;9.958;2022-12-18T02:25:21;-7.80;35.30
5592;DHT22;2818;49.790;9.958;2022-12-18T02:27:50;-7.80;14.40
5592;DHT22;2818;49.790;9.958;2022-12-18T02:30:18;-7.80;1.00
5592;DHT22;2818;49.790;9.958;2022-12-18T02:32:49;-7.80;99.90
5592;DHT22;2818;49.790;9.958;2022-12-18T02:35:23;-7.90;12.50
5592;DHT22;2818;49.790;9.958;2022-12-18T02:37:51;-8.00;1.00
5592;DHT22;2818;49.790;9.958;2022-12-18T02:40:22;-7.90;1.00
5592;DHT22;2818;49.790;9.958;2022-12-18T02:42:50;-7.90;99.90
5592;DHT22;2818;49.790;9.958;2022-12-18T02:45:17;-8.00;99.90
5592;DHT22;2818;49.790;9.958;2022-12-18T02:47:47;-8.00;99.90
5592;DHT22;2818;49.790;9.958;2022-12-18T02:50:38;-8.00;99.90
5592;DHT22;2818;49.790;9.958;2022-12-18T03:03:58;-8.00;1.00
5592;DHT22;2818;49.790;9.958;2022-12-18T03:06:32;-8.00;1.00
5592;DHT22;2818;49.790;9.958;2022-12-18T03:09:07;-8.00;1.00
5592;DHT22;2818;49.790;9.958;2022-12-18T03:11:39;-7.90;99.90
5592;DHT22;2818;49.790;9.958;2022-12-18T03:14:26;-8.00;1.00
5592;DHT22;2818;49.790;9.958;2022-12-18T03:16:58;-8.00;1.00
5592;DHT22;2818;49.790;9.958;2022-12-18T03:19:29;-8.10;1.00
5592;DHT22;2818;49.790;9.958;2022-12-18T03:22:00;-8.10;99.90
5592;DHT22;2818;49.790;9.958;2022-12-18T03:24:30;-8.10;1.00
5592;DHT22;2818;49.790;9.958;2022-12-18T03:27:00;-8.10;1.00
5592;DHT22;2818;49.790;9.958;2022-12-18T03:32:23;-8.10;1.00
5592;DHT22;2818;49.790;9.958;2022-12-18T03:34:54;-8.10;1.00
5592;DHT22;2818;49.790;9.958;2022-12-18T03:37:24;-8.10;93.30
5592;DHT22;2818;49.790;9.958;2022-12-18T03:39:51;-8.10;1.00
5592;DHT22;2818;49.790;9.958;2022-12-18T03:42:39;-8.20;58.80
5592;DHT22;2818;49.790;9.958;2022-12-18T03:47:56;-8.20;99.90
5592;DHT22;2818;49.790;9.958;2022-12-18T03:53:03;-8.30;99.90
5592;DHT22;2818;49.790;9.958;2022-12-18T03:55:34;-8.30;1.00
5592;DHT22;2818;49.790;9.958;2022-12-18T03:58:03;-8.30;99.90
5592;DHT22;2818;49.790;9.958;2022-12-18T04:00:31;-8.40;1.00
5592;DHT22;2818;49.790;9.958;2022-12-18T04:03:01;-8.40;1.00
5592;DHT22;2818;49.790;9.958;2022-12-18T04:05:28;-8.40;1.00
5592;DHT22;2818;49.790;9.958;2022-12-18T04:07:57;-8.50;1.00
5592;DHT22;2818;49.790;9.958;2022-12-18T04:10:24;-8.50;1.00
5592;DHT22;2818;49.790;9.958;2022-12-18T04:12:55;-8.50;1.00
5592;DHT22;2818;49.790;9.958;2022-12-18T04:15:23;-8.50;1.00
5592;DHT22;2818;49.790;9.958;2022-12-18T04:17:50;-8.50;1.00
5592;DHT22;2818;49.790;9.958;2022-12-18T04:20:17;-8.50;1.00
5592;DHT22;2818;49.790;9.958;2022-12-18T04:22:44;-8.50;1.00
5592;DHT22;2818;49.790;9.958;2022-12-18T04:25:12;-8.50;1.00
5592;DHT22;2818;49.790;9.958;2022-12-18T04:27:39;-8.50;1.00
5592;DHT22;2818;49.790;9.958;2022-12-18T04:30:06;-8.50;99.90
5592;DHT22;2818;49.790;9.958;2022-12-18T04:32:34;-8.50;99.90
5592;DHT22;2818;49.790;9.958;2022-12-18T04:35:01;-8.60;1.00
5592;DHT22;2818;49.790;9.958;2022-12-18T04:37:28;-8.60;1.00
5592;DHT22;2818;49.790;9.958;2022-12-18T04:39:55;-8.60;1.00
5592;DHT22;2818;49.790;9.958;2022-12-18T04:42:22;-8.70;1.00
5592;DHT22;2818;49.790;9.958;2022-12-18T04:44:49;-8.70;1.00
5592;DHT22;2818;49.790;9.958;2022-12-18T04:47:16;-8.70;1.00
5592;DHT22;2818;49.790;9.958;2022-12-18T04:49:42;-8.70;1.00
5592;DHT22;2818;49.790;9.958;2022-12-18T04:52:09;-8.70;1.00
5592;DHT22;2818;49.790;9.958;2022-12-18T04:54:36;-8.70;1.00
5592;DHT22;2818;49.790;9.958;2022-12-18T04:57:03;-8.80;1.00
5592;DHT22;2818;49.790;9.958;2022-12-18T04:59:30;-8.80;1.00
5592;DHT22;2818;49.790;9.958;2022-12-18T05:01:57;-8.80;99.90
5592;DHT22;2818;49.790;9.958;2022-12-18T05:04:24;-8.80;1.00
5592;DHT22;2818;49.790;9.958;2022-12-18T05:06:51;-8.80;1.00
5592;DHT22;2818;49.790;9.958;2022-12-18T05:09:18;-8.80;1.00
5592;DHT22;2818;49.790;9.958;2022-12-18T05:11:45;-8.80;99.90
5592;DHT22;2818;49.790;9.958;2022-12-18T05:14:13;-8.80;1.00
5592;DHT22;2818;49.790;9.958;2022-12-18T05:16:40;-8.80;1.00
5592;DHT22;2818;49.790;9.958;2022-12-18T05:19:07;-8.80;1.00
5592;DHT22;2818;49.790;9.958;2022-12-18T05:21:34;-8.80;1.00
5592;DHT22;2818;49.790;9.958;2022-12-18T05:24:01;-8.80;1.00
5592;DHT22;2818;49.790;9.958;2022-12-18T05:26:27;-8.80;1.00
5592;DHT22;2818;49.790;9.958;2022-12-18T05:28:56;-8.80;99.90
5592;DHT22;2818;49.790;9.958;2022-12-18T05:31:23;-8.80;99.90
5592;DHT22;2818;49.790;9.958;2022-12-18T05:33:50;-8.70;1.00
5592;DHT22;2818;49.790;9.958;2022-12-18T05:36:17;-8.80;1.00
5592;DHT22;2818;49.790;9.958;2022-12-18T05:38:43;-8.80;99.90
5592;DHT22;2818;49.790;9.958;2022-12-18T05:41:10;-8.80;1.00
5592;DHT22;2818;49.790;9.958;2022-12-18T05:43:39;-8.90;1.00
5592;DHT22;2818;49.790;9.958;2022-12-18T05:46:08;-8.90;1.00
5592;DHT22;2818;49.790;9.958;2022-12-18T05:48:35;-8.80;1.00
5592;DHT22;2818;49.790;9.958;2022-12-18T05:51:07;-8.90;99.90
5592;DHT22;2818;49.790;9.958;2022-12-18T05:53:35;-8.90;99.90
5592;DHT22;2818;49.790;9.958;2022-12-18T05:56:04;-9.00;99.90
5592;DHT22;2818;49.790;9.958;2022-12-18T05:58:32;-9.00;1.00
5592;DHT22;2818;49.790;9.958;2022-12-18T06:01:10;-8.90;1.00
5592;DHT22;2818;49.790;9.958;2022-12-18T06:03:38;-8.90;1.00
5592;DHT22;2818;49.790;9.958;2022-12-18T06:06:24;-8.90;1.00
5592;DHT22;2818;49.790;9.958;2022-12-18T06:08:51;-8.90;1.00
5592;DHT22;2818;49.790;9.958;2022-12-18T06:11:24;-8.90;1.00
5592;DHT22;2818;49.790;9.958;2022-12-18T06:13:52;-8.90;1.00
5592;DHT22;2818;49.790;9.958;2022-12-18T06:16:25;-8.90;1.00
5592;DHT22;2818;49.790;9.958;2022-12-18T06:18:52;-8.90;1.00
5592;DHT22;2818;49.790;9.958;2022-12-18T06:21:19;-8.90;1.00
5592;DHT22;2818;49.790;9.958;2022-12-18T06:23:46;-8.90;1.00
5592;DHT22;2818;49.790;9.958;2022-12-18T06:26:13;-8.90;1.00
5592;DHT22;2818;49.790;9.958;2022-12-18T06:28:41;-8.80;1.00
5592;DHT22;2818;49.790;9.958;2022-12-18T06:31:09;-8.80;1.00
5592;DHT22;2818;49.790;9.958;2022-12-18T06:33:36;-8.80;1.00
5592;DHT22;2818;49.790;9.958;2022-12-18T06:36:09;-8.80;1.00
5592;DHT22;2818;49.790;9.958;2022-12-18T06:38:38;-8.70;1.00
5592;DHT22;2818;49.790;9.958;2022-12-18T06:41:11;-8.70;1.00
5592;DHT22;2818;49.790;9.958;2022-12-18T06:43:38;-8.70;1.00
5592;DHT22;2818;49.790;9.958;2022-12-18T06:46:06;-8.60;1.00
5592;DHT22;2818;49.790;9.958;2022-12-18T06:48:33;-8.60;7.60
5592;DHT22;2818;49.790;9.958;2022-12-18T06:51:00;-8.50;16.70
5592;DHT22;2818;49.790;9.958;2022-12-18T06:53:27;-8.40;21.70
5592;DHT22;2818;49.790;9.958;2022-12-18T06:56:06;-8.20;19.90
5592;DHT22;2818;49.790;9.958;2022-12-18T06:58:36;-8.20;15.30
5592;DHT22;2818;49.790;9.958;2022-12-18T07:01:05;-8.10;19.00
5592;DHT22;2818;49.790;9.958;2022-12-18T07:03:32;-8.10;24.00
5592;DHT22;2818;49.790;9.958;2022-12-18T07:05:59;-8.00;34.60
5592;DHT22;2818;49.790;9.958;2022-12-18T07:08:26;-7.90;41.70
5592;DHT22;2818;49.790;9.958;2022-12-18T07:10:53;-7.90;44.20
5592;DHT22;2818;49.790;9.958;2022-12-18T07:13:22;-7.80;50.30
5592;DHT22;2818;49.790;9.958;2022-12-18T07:15:49;-7.70;55.50
5592;DHT22;2818;49.790;9.958;2022-12-18T07:18:16;-7.70;46.70
5592;DHT22;2818;49.790;9.958;2022-12-18T07:20:43;-7.70;9.20
5592;DHT22;2818;49.790;9.958;2022-12-18T07:23:11;-7.70;1.00
5592;DHT22;2818;49.790;9.958;2022-12-18T07:25:38;-7.60;1.00
5592;DHT22;2818;49.790;9.958;2022-12-18T07:28:06;-7.60;1.00
5592;DHT22;2818;49.790;9.958;2022-12-18T07:30:37;-7.70;1.00
5592;DHT22;2818;49.790;9.958;2022-12-18T07:33:04;-7.60;1.00
5592;DHT22;2818;49.790;9.958;2022-12-18T07:35:32;-7.60;1.00
5592;DHT22;2818;49.790;9.958;2022-12-18T07:37:59;-7.60;1.00
5592;DHT22;2818;49.790;9.958;2022-12-18T07:40:25;-7.50;1.00
5592;DHT22;2818;49.790;9.958;2022-12-18T07:42:52;-7.40;1.00
5592;DHT22;2818;49.790;9.958;2022-12-18T07:45:19;-7.40;1.00
5592;DHT22;2818;49.790;9.958;2022-12-18T07:47:46;-7.30;1.00
5592;DHT22;2818;49.790;9.958;2022-12-18T07:50:13;-7.30;1.00
5592;DHT22;2818;49.790;9.958;2022-12-18T07:52:40;-7.20;1.00
5592;DHT22;2818;49.790;9.958;2022-12-18T07:55:07;-7.30;1.00
5592;DHT22;2818;49.790;9.958;2022-12-18T07:57:34;-7.30;1.00
5592;DHT22;2818;49.790;9.958;2022-12-18T08:00:21;-7.20;1.00
5592;DHT22;2818;49.790;9.958;2022-12-18T08:02:48;-7.20;1.00
5592;DHT22;2818;49.790;9.958;2022-12-18T08:05:16;-7.20;1.00
5592;DHT22;2818;49.790;9.958;2022-12-18T08:07:42;-7.20;1.00
5592;DHT22;2818;49.790;9.958;2022-12-18T08:10:09;-7.10;1.00
5592;DHT22;2818;49.790;9.958;2022-12-18T08:12:36;-7.00;1.00
5592;DHT22;2818;49.790;9.958;2022-12-18T08:15:03;-7.00;1.00
5592;DHT22;2818;49.790;9.958;2022-12-18T08:17:31;-6.90;1.00
5592;DHT22;2818;49.790;9.958;2022-12-18T08:19:58;-6.80;1.00
5592;DHT22;2818;49.790;9.958;2022-12-18T08:22:25;-6.80;1.00
5592;DHT22;2818;49.790;9.958;2022-12-18T08:24:52;-6.80;1.00
5592;DHT22;2818;49.790;9.958;2022-12-18T08:27:19;-6.80;1.00
5592;DHT22;2818;49.790;9.958;2022-12-18T08:29:56;-6.80;1.00
5592;DHT22;2818;49.790;9.958;2022-12-18T08:32:23;-6.70;1.00
5592;DHT22;2818;49.790;9.958;2022-12-18T08:34:50;-6.70;1.00
5592;DHT22;2818;49.790;9.958;2022-12-18T08:37:17;-6.60;1.00
5592;DHT22;2818;49.790;9.958;2022-12-18T08:39:44;-6.50;1.00
5592;DHT22;2818;49.790;9.958;2022-12-18T08:42:11;-6.50;1.00
5592;DHT22;2818;49.790;9.958;2022-12-18T08:44:57;-6.40;1.00
5592;DHT22;2818;49.790;9.958;2022-12-18T08:47:24;-6.40;1.00
5592;DHT22;2818;49.790;9.958;2022-12-18T08:49:52;-6.40;1.00
5592;DHT22;2818;49.790;9.958;2022-12-18T08:52:19;-6.40;1.00
5592;DHT22;2818;49.790;9.958;2022-12-18T08:54:46;-6.30;1.00
5592;DHT22;2818;49.790;9.958;2022-12-18T08:57:13;-6.20;1.00
5592;DHT22;2818;49.790;9.958;2022-12-18T08:59:39;-6.20;1.00
5592;DHT22;2818;49.790;9.958;2022-12-18T09:02:09;-6.20;1.00
5592;DHT22;2818;49.790;9.958;2022-12-18T09:04:37;-6.10;1.00
5592;DHT22;2818;49.790;9.958;2022-12-18T09:07:04;-6.10;1.00
5592;DHT22;2818;49.790;9.958;2022-12-18T09:09:31;-6.10;1.00
5592;DHT22;2818;49.790;9.958;2022-12-18T09:11:58;-6.00;1.00
5592;DHT22;2818;49.790;9.958;2022-12-18T09:14:24;-6.00;1.00
5592;DHT22;2818;49.790;9.958;2022-12-18T09:16:51;-5.90;1.00
5592;DHT22;2818;49.790;9.958;2022-12-18T09:19:18;-5.90;1.00
5592;DHT22;2818;49.790;9.958;2022-12-18T09:21:45;-5.80;1.00
5592;DHT22;2818;49.790;9.958;2022-12-18T09:24:14;-5.80;1.00
5592;DHT22;2818;49.790;9.958;2022-12-18T09:26:41;-5.70;1.00
5592;DHT22;2818;49.790;9.958;2022-12-18T09:29:13;-5.60;1.00
5592;DHT22;2818;49.790;9.958;2022-12-18T09:31:41;-5.60;1.00
5592;DHT22;2818;49.790;9.958;2022-12-18T09:34:08;-5.50;1.00
5592;DHT22;2818;49.790;9.958;2022-12-18T09:36:35;-5.50;1.00
5592;DHT22;2818;49.790;9.958;2022-12-18T09:39:03;-5.40;1.00
5592;DHT22;2818;49.790;9.958;2022-12-18T09:41:57;-5.30;1.00
5592;DHT22;2818;49.790;9.958;2022-12-18T09:49:24;-5.00;1.00
5592;DHT22;2818;49.790;9.958;2022-12-18T09:55:24;-4.90;1.00
5592;DHT22;2818;49.790;9.958;2022-12-18T09:57:57;-4.70;1.00
5592;DHT22;2818;49.790;9.958;2022-12-18T10:00:28;-4.60;1.00
5592;DHT22;2818;49.790;9.958;2022-12-18T10:03:09;-4.60;1.00
5592;DHT22;2818;49.790;9.958;2022-12-18T10:08:34;-4.40;1.00
5592;DHT22;2818;49.790;9.958;2022-12-18T10:14:00;-4.20;1.00
5592;DHT22;2818;49.790;9.958;2022-12-18T10:27:16;-3.80;1.00
5592;DHT22;2818;49.790;9.958;2022-12-18T10:29:44;-3.80;1.00
5592;DHT22;2818;49.790;9.958;2022-12-18T10:32:21;-3.70;1.00
5592;DHT22;2818;49.790;9.958;2022-12-18T10:34:50;-3.70;1.00
5592;DHT22;2818;49.790;9.958;2022-12-18T10:37:28;-3.60;1.00
5592;DHT22;2818;49.790;9.958;2022-12-18T10:42:34;-3.60;1.00
5592;DHT22;2818;49.790;9.958;2022-12-18T10:45:13;-3.50;1.00
5592;DHT22;2818;49.790;9.958;2022-12-18T10:47:43;-3.40;1.00
5592;DHT22;2818;49.790;9.958;2022-12-18T10:50:37;-3.40;1.00
5592;DHT22;2818;49.790;9.958;2022-12-18T10:53:30;-3.40;1.00
5592;DHT22;2818;49.790;9.958;2022-12-18T10:56:03;-3.30;1.00
5592;DHT22;2818;49.790;9.958;2022-12-18T10:58:37;-3.20;1.00
5592;DHT22;2818;49.790;9.958;2022-12-18T11:06:12;-3.00;1.00
5592;DHT22;2818;49.790;9.958;2022-12-18T11:08:41;-3.00;1.00
5592;DHT22;2818;49.790;9.958;2022-12-18T11:11:19;-2.90;1.00
5592;DHT22;2818;49.790;9.958;2022-12-18T11:16:33;-2.80;1.00
5592;DHT22;2818;49.790;9.958;2022-12-18T11:21:50;-2.70;1.00
5592;DHT22;2818;49.790;9.958;2022-12-18T11:24:22;-2.60;1.00
5592;DHT22;2818;49.790;9.958;2022-12-18T11:26:50;-2.50;1.00
5592;DHT22;2818;49.790;9.958;2022-12-18T11:29:34;-2.40;1.00
5592;DHT22;2818;49.790;9.958;2022-12-18T11:32:32;-2.40;1.00
5592;DHT22;2818;49.790;9.958;2022-12-18T11:35:15;-2.40;1.00
5592;DHT22;2818;49.790;9.958;2022-12-18T11:37:48;-2.40;1.00
5592;DHT22;2818;49.790;9.958;2022-12-18T11:40:20;-2.30;1.00
5592;DHT22;2818;49.790;9.958;2022-12-18T11:43:02;-2.20;1.00
5592;DHT22;2818;49.790;9.958;2022-12-18T11:45:42;-2.10;1.00
5592;DHT22;2818;49.790;9.958;2022-12-18T11:50:53;-2.10;1.00
5592;DHT22;2818;49.790;9.958;2022-12-18T11:53:21;-2.00;99.90
5592;DHT22;2818;49.790;9.958;2022-12-18T12:08:10;-2.00;99.90
5592;DHT22;2818;49.790;9.958;2022-12-18T12:17:01;-1.70;99.90
5592;DHT22;2818;49.790;9.958;2022-12-18T12:22:22;-1.60;1.00
5592;DHT22;2818;49.790;9.958;2022-12-18T12:41:06;-1.10;1.00
5592;DHT22;2818;49.790;9.958;2022-12-18T12:43:57;-1.00;99.90
5592;DHT22;2818;49.790;9.958;2022-12-18T12:46:25;-1.10;99.90
5592;DHT22;2818;49.790;9.958;2022-12-18T12:48:58;-1.00;99.90
5592;DHT22;2818;49.790;9.958;2022-12-18T12:51:32;-1.00;99.90
5592;DHT22;2818;49.790;9.958;2022-12-18T12:54:02;-1.10;99.90
5592;DHT22;2818;49.790;9.958;2022-12-18T12:56:52;-1.10;1.00
5592;DHT22;2818;49.790;9.958;2022-12-18T13:02:25;-1.10;46.60
5592;DHT22;2818;49.790;9.958;2022-12-18T13:05:07;-1.10;1.00
5592;DHT22;2818;49.790;9.958;2022-12-18T13:07:45;-1.20;1.00
5592;DHT22;2818;49.790;9.958;2022-12-18T13:15:25;-1.10;1.00
5592;DHT22;2818;49.790;9.958;2022-12-18T13:20:45;-1.00;1.00
5592;DHT22;2818;49.790;9.958;2022-12-18T13:23:36;-1.00;1.00
5592;DHT22;2818;49.790;9.958;2022-12-18T13:36:57;-1.00;1.00
5592;DHT22;2818;49.790;9.958;2022-12-18T13:39:43;-1.10;1.00
5592;DHT22;2818;49.790;9.958;2022-12-18T13:44:57;-1.10;99.90
5592;DHT22;2818;49.790;9.958;2022-12-18T13:47:36;-1.10;99.90
5592;DHT22;2818;49.790;9.958;2022-12-18T13:50:24;-1.20;1.00
5592;DHT22;2818;49.790;9.958;2022-12-18T13:52:58;-1.20;1.00
5592;DHT22;2818;49.790;9.958;2022-12-18T13:55:25;-1.20;1.00
5592;DHT22;2818;49.790;9.958;2022-12-18T13:58:03;-1.20;1.00
5592;DHT22;2818;49.790;9.958;2022-12-18T14:00:31;-1.30;18.10
5592;DHT22;2818;49.790;9.958;2022-12-18T14:02:59;-1.30;99.90
5592;DHT22;2818;49.790;9.958;2022-12-18T14:05:29;-1.30;1.00
5592;DHT22;2818;49.790;9.958;2022-12-18T14:08:10;-1.30;99.90
5592;DHT22;2818;49.790;9.958;2022-12-18T14:10:46;-1.30;99.90
5592;DHT22;2818;49.790;9.958;2022-12-18T14:15:48;-1.30;1.00
5592;DHT22;2818;49.790;9.958;2022-12-18T14:20:50;-1.40;99.90
5592;DHT22;2818;49.790;9.958;2022-12-18T14:26:17;-1.40;99.90
5592;DHT22;2818;49.790;9.958;2022-12-18T14:28:46;-1.40;99.90
5592;DHT22;2818;49.790;9.958;2022-12-18T14:31:25;-1.50;1.00
5592;DHT22;2818;49.790;9.958;2022-12-18T14:33:52;-1.50;1.00
5592;DHT22;2818;49.790;9.958;2022-12-18T14:36:25;-1.50;1.00
5592;DHT22;2818;49.790;9.958;2022-12-18T14:38:56;-1.60;1.00
5592;DHT22;2818;49.790;9.958;2022-12-18T14:41:24;-1.60;50.50
5592;DHT22;2818;49.790;9.958;2022-12-18T14:43:53;-1.60;99.90
5592;DHT22;2818;49.790;9.958;2022-12-18T14:48:57;-1.60;99.90
5592;DHT22;2818;49.790;9.958;2022-12-18T14:51:26;-1.60;1.00
5592;DHT22;2818;49.790;9.958;2022-12-18T14:56:24;-1.70;99.90
5592;DHT22;2818;49.790;9.958;2022-12-18T14:58:58;-1.70;1.00
5592;DHT22;2818;49.790;9.958;2022-12-18T15:01:27;-1.80;1.00
5592;DHT22;2818;49.790;9.958;2022-12-18T15:03:56;-1.70;1.00
5592;DHT22;2818;49.790;9.958;2022-12-18T15:06:30;-1.80;1.00
5592;DHT22;2818;49.790;9.958;2022-12-18T15:08:58;-1.80;1.00
5592;DHT22;2818;49.790;9.958;2022-12-18T15:11:43;-1.80;1.00
5592;DHT22;2818;49.790;9.958;2022-12-18T15:16:58;-1.90;1.00
5592;DHT22;2818;49.790;9.958;2022-12-18T15:19:46;-2.00;1.00
5592;DHT22;2818;49.790;9.958;2022-12-18T15:22:26;-2.00;1.00
5592;DHT22;2818;49.790;9.958;2022-12-18T15:24:55;-2.00;1.00
5592;DHT22;2818;49.790;9.958;2022-12-18T15:27:27;-2.00;1.00
5592;DHT22;2818;49.790;9.958;2022-12-18T15:32:38;-2.00;1.00
5592;DHT22;2818;49.790;9.958;2022-12-18T15:37:39;-2.00;1.00
5592;DHT22;2818;49.790;9.958;2022-12-18T15:40:12;-2.10;1.00
5592;DHT22;2818;49.790;9.958;2022-12-18T15:42:40;-2.10;1.00
5592;DHT22;2818;49.790;9.958;2022-12-18T15:45:25;-2.10;1.00
5592;DHT22;2818;49.790;9.958;2022-12-18T15:47:52;-2.10;1.00
5592;DHT22;2818;49.790;9.958;2022-12-18T15:50:20;-2.10;1.00
5592;DHT22;2818;49.790;9.958;2022-12-18T15:52:50;-2.10;1.00
5592;DHT22;2818;49.790;9.958;2022-12-18T15:55:21;-2.20;1.00
5592;DHT22;2818;49.790;9.958;2022-12-18T15:58:08;-2.10;1.00
5592;DHT22;2818;49.790;9.958;2022-12-18T16:00:38;-2.20;1.00
5592;DHT22;2818;49.790;9.958;2022-12-18T16:03:05;-2.10;1.00
5592;DHT22;2818;49.790;9.958;2022-12-18T16:05:33;-2.10;1.00
5592;DHT22;2818;49.790;9.958;2022-12-18T16:08:00;-2.10;1.00
5592;DHT22;2818;49.790;9.958;2022-12-18T16:10:27;-2.10;1.00
5592;DHT22;2818;49.790;9.958;2022-12-18T16:12:54;-2.10;1.00
5592;DHT22;2818;49.790;9.958;2022-12-18T16:15:21;-2.10;1.00
5592;DHT22;2818;49.790;9.958;2022-12-18T16:17:51;-2.10;1.00
5592;DHT22;2818;49.790;9.958;2022-12-18T16:20:22;-2.10;1.00
5592;DHT22;2818;49.790;9.958;2022-12-18T16:22:49;-2.10;1.00
5592;DHT22;2818;49.790;9.958;2022-12-18T16:25:25;-2.10;1.00
5592;DHT22;2818;49.790;9.958;2022-12-18T16:27:53;-2.10;1.00
5592;DHT22;2818;49.790;9.958;2022-12-18T16:30:27;-2.10;1.00
5592;DHT22;2818;49.790;9.958;2022-12-18T16:33:02;-2.00;1.00
5592;DHT22;2818;49.790;9.958;2022-12-18T16:35:29;-2.20;1.00
5592;DHT22;2818;49.790;9.958;2022-12-18T16:37:56;-2.10;1.00
5592;DHT22;2818;49.790;9.958;2022-12-18T16:40:22;-2.10;1.00
5592;DHT22;2818;49.790;9.958;2022-12-18T16:42:49;-2.10;1.00
5592;DHT22;2818;49.790;9.958;2022-12-18T16:45:17;-2.10;1.00
5592;DHT22;2818;49.790;9.958;2022-12-18T16:47:45;-2.10;1.00
5592;DHT22;2818;49.790;9.958;2022-12-18T16:50:12;-2.10;1.00
5592;DHT22;2818;49.790;9.958;2022-12-18T16:52:39;-2.10;1.00
5592;DHT22;2818;49.790;9.958;2022-12-18T16:55:07;-2.10;1.00
5592;DHT22;2818;49.790;9.958;2022-12-18T16:57:34;-2.10;1.00
5592;DHT22;2818;49.790;9.958;2022-12-18T17:00:03;-2.10;1.00
5592;DHT22;2818;49.790;9.958;2022-12-18T17:02:32;-2.10;1.00
5592;DHT22;2818;49.790;9.958;2022-12-18T17:04:59;-2.10;1.00
5592;DHT22;2818;49.790;9.958;2022-12-18T17:07:26;-2.10;1.00
5592;DHT22;2818;49.790;9.958;2022-12-18T17:09:54;-2.10;1.00
5592;DHT22;2818;49.790;9.958;2022-12-18T17:12:21;-2.20;1.00
5592;DHT22;2818;49.790;9.958;2022-12-18T17:14:49;-2.20;1.00
5592;DHT22;2818;49.790;9.958;2022-12-18T17:17:16;-2.30;1.00
5592;DHT22;2818;49.790;9.958;2022-12-18T17:19:49;-2.30;1.00
5592;DHT22;2818;49.790;9.958;2022-12-18T17:22:17;-2.30;1.00
5592;DHT22;2818;49.790;9.958;2022-12-18T17:24:45;-2.30;1.00
5592;DHT22;2818;49.790;9.958;2022-12-18T17:27:12;-2.30;1.00
5592;DHT22;2818;49.790;9.958;2022-12-18T17:29:39;-2.40;1.00
5592;DHT22;2818;49.790;9.958;2022-12-18T17:32:13;-2.40;1.00
5592;DHT22;2818;49.790;9.958;2022-12-18T17:34:40;-2.40;1.00
5592;DHT22;2818;49.790;9.958;2022-12-18T17:37:07;-2.40;1.00
5592;DHT22;2818;49.790;9.958;2022-12-18T17:39:35;-2.40;1.00
5592;DHT22;2818;49.790;9.958;2022-12-18T17:42:02;-2.40;1.00
5592;DHT22;2818;49.790;9.958;2022-12-18T17:44:30;-2.40;1.00
5592;DHT22;2818;49.790;9.958;2022-12-18T17:46:57;-2.40;1.00
5592;DHT22;2818;49.790;9.958;2022-12-18T17:49:24;-2.40;1.00
5592;DHT22;2818;49.790;9.958;2022-12-18T17:51:51;-2.40;1.00
5592;DHT22;2818;49.790;9.958;2022-12-18T17:54:19;-2.40;1.00
5592;DHT22;2818;49.790;9.958;2022-12-18T17:56:46;-2.40;1.00
5592;DHT22;2818;49.790;9.958;2022-12-18T17:59:13;-2.40;1.00
5592;DHT22;2818;49.790;9.958;2022-12-18T18:01:40;-2.40;1.00
5592;DHT22;2818;49.790;9.958;2022-12-18T18:04:12;-2.40;1.00
5592;DHT22;2818;49.790;9.958;2022-12-18T18:06:39;-2.40;1.00
5592;DHT22;2818;49.790;9.958;2022-12-18T18:09:06;-2.50;1.00
5592;DHT22;2818;49.790;9.958;2022-12-18T18:11:42;-2.50;1.00
5592;DHT22;2818;49.790;9.958;2022-12-18T18:14:28;-2.50;1.00
5592;DHT22;2818;49.790;9.958;2022-12-18T18:16:55;-2.50;1.00
5592;DHT22;2818;49.790;9.958;2022-12-18T18:19:24;-2.50;1.00
5592;DHT22;2818;49.790;9.958;2022-12-18T18:21:52;-2.50;1.00
5592;DHT22;2818;49.790;9.958;2022-12-18T18:24:21;-2.40;1.00
5592;DHT22;2818;49.790;9.958;2022-12-18T18:26:49;-2.40;1.00
5592;DHT22;2818;49.790;9.958;2022-12-18T18:29:18;-2.50;1.00
5592;DHT22;2818;49.790;9.958;2022-12-18T18:31:46;-2.50;1.00
5592;DHT22;2818;49.790;9.958;2022-12-18T18:34:22;-2.50;1.00
5592;DHT22;2818;49.790;9.958;2022-12-18T18:36:50;-2.50;1.00
5592;DHT22;2818;49.790;9.958;2022-12-18T18:39:17;-2.50;1.00
5592;DHT22;2818;49.790;9.958;2022-12-18T18:41:45;-2.50;1.00
5592;DHT22;2818;49.790;9.958;2022-12-18T18:44:15;-2.50;1.00
5592;DHT22;2818;49.790;9.958;2022-12-18T18:46:42;-2.50;1.00
5592;DHT22;2818;49.790;9.958;2022-12-18T18:49:09;-2.60;1.00
5592;DHT22;2818;49.790;9.958;2022-12-18T18:51:36;-2.60;1.00
5592;DHT22;2818;49.790;9.958;2022-12-18T18:54:03;-2.60;1.00
5592;DHT22;2818;49.790;9.958;2022-12-18T18:56:30;-2.60;1.00
5592;DHT22;2818;49.790;9.958;2022-12-18T18:59:17;-2.60;1.00
5592;DHT22;2818;49.790;9.958;2022-12-18T19:01:49;-2.60;1.00
5592;DHT22;2818;49.790;9.958;2022-12-18T19:04:18;-2.60;1.00
5592;DHT22;2818;49.790;9.958;2022-12-18T19:06:45;-2.60;1.00
5592;DHT22;2818;49.790;9.958;2022-12-18T19:09:14;-2.60;1.00
5592;DHT22;2818;49.790;9.958;2022-12-18T19:11:41;-2.60;1.00